No particular awareness of the weather is required.    There are no Weather-warnings


Meteo18 Weather Cam more information Meteo18 Weather Cam


Thunder radar more information blitzortung!


Rain radar more information rain snow radar


Visit our other weather sites:

Template documentation
and downloads

And another site



Weather Underground History page Text

Daily Summary for September 26, 2017 Units:  Both    English   Metric
« Previous Day
Next Day »
Daily Weekly Monthly Yearly Custom
  High: Low: Average:
Temperature: 66.7 °F /  19.3 °C 55.8 °F /  13.2 °C 60.3 °F /  15.7 °C
Dew Point: 61.2 °F /  16.2 °C 54.7 °F /  12.6 °C 57.6 °F /  14.2 °C
Humidity: 97 % 74 % 91 %
Wind Speed: 10 mph /  16.1 km/h - 1.1 mph /  1.7 km/h
Wind Gust: 14 mph /  22.5 km/h - -
Wind:- - WSW
Pressure: 30.2 in /  1023.2 hPa 30.1 in /  1020.2 hPa -
Precipitation: 0.01 in /  0.3 mm    
Historical Graphs
 
 
Tabular Data for September 26, 2017
Time Temperature Dew Point Pressure Wind Wind Speed Wind Gust Humidity Rainfall Rate (Hourly)
00:02 57.6 °F /  14.2 °C 56.5 °F /  13.6 °C 30.2 in /  1021.2 hPa Calm     96 % 0 in /  0.0 mm
00:12 57.6 °F /  14.2 °C 56.7 °F /  13.7 °C 30.2 in /  1021.2 hPa Calm     97 % 0 in /  0.0 mm
00:17 57.6 °F /  14.2 °C 56.7 °F /  13.7 °C 30.2 in /  1021.2 hPa Calm     97 % 0 in /  0.0 mm
00:22 57.7 °F /  14.3 °C 56.8 °F /  13.8 °C 30.2 in /  1021.2 hPa Calm     97 % 0 in /  0.0 mm
00:32 57.7 °F /  14.3 °C 56.8 °F /  13.8 °C 30.2 in /  1021.2 hPa Calm   2 mph /  3.2 km/h 97 % 0 in /  0.0 mm
00:37 57.7 °F /  14.3 °C 56.8 °F /  13.8 °C 30.2 in /  1021.2 hPa Calm   2 mph /  3.2 km/h 97 % 0 in /  0.0 mm
00:42 57.7 °F /  14.3 °C 56.8 °F /  13.8 °C 30.2 in /  1021.2 hPa Calm   1 mph /  1.6 km/h 97 % 0 in /  0.0 mm
00:47 57.7 °F /  14.3 °C 56.8 °F /  13.8 °C 30.2 in /  1021.2 hPa Calm   1 mph /  1.6 km/h 97 % 0 in /  0.0 mm
00:57 57.6 °F /  14.2 °C 56.7 °F /  13.7 °C 30.2 in /  1020.9 hPa Calm     97 % 0 in /  0.0 mm
01:02 57.6 °F /  14.2 °C 56.7 °F /  13.7 °C 30.2 in /  1020.9 hPa Calm     97 % 0 in /  0.0 mm
01:12 57.6 °F /  14.2 °C 56.7 °F /  13.7 °C 30.2 in /  1020.9 hPa Calm     97 % 0 in /  0.0 mm
01:17 57.7 °F /  14.3 °C 56.8 °F /  13.8 °C 30.2 in /  1020.9 hPa Calm     97 % 0 in /  0.0 mm
01:22 57.7 °F /  14.3 °C 56.8 °F /  13.8 °C 30.2 in /  1020.9 hPa Calm     97 % 0 in /  0.0 mm
01:32 57.9 °F /  14.4 °C 57 °F /  13.9 °C 30.2 in /  1020.9 hPa Calm     97 % 0 in /  0.0 mm
01:42 57.9 °F /  14.4 °C 57 °F /  13.9 °C 30.2 in /  1020.9 hPa Calm     97 % 0 in /  0.0 mm
01:47 57.9 °F /  14.4 °C 57 °F /  13.9 °C 30.2 in /  1020.9 hPa Calm     97 % 0 in /  0.0 mm
01:52 57.9 °F /  14.4 °C 57 °F /  13.9 °C 30.2 in /  1020.9 hPa Calm     97 % 0 in /  0.0 mm
01:57 57.9 °F /  14.4 °C 57 °F /  13.9 °C 30.2 in /  1020.9 hPa West 1 mph /  1.6 km/h 3 mph /  4.8 km/h 97 % 0 in /  0.0 mm
02:02 57.9 °F /  14.4 °C 57 °F /  13.9 °C 30.2 in /  1020.9 hPa West 1 mph /  1.6 km/h 3 mph /  4.8 km/h 97 % 0 in /  0.0 mm
02:12 58.1 °F /  14.5 °C 57.2 °F /  14.0 °C 30.2 in /  1020.9 hPa Calm   3 mph /  4.8 km/h 97 % 0 in /  0.0 mm
02:17 58.1 °F /  14.5 °C 57 °F /  13.9 °C 30.2 in /  1020.9 hPa Calm   1 mph /  1.6 km/h 96 % 0 in /  0.0 mm
02:22 58.3 °F /  14.6 °C 57.2 °F /  14.0 °C 30.1 in /  1020.5 hPa Calm   1 mph /  1.6 km/h 96 % 0 in /  0.0 mm
02:27 58.1 °F /  14.5 °C 57 °F /  13.9 °C 30.1 in /  1020.5 hPa Calm   2 mph /  3.2 km/h 96 % 0 in /  0.0 mm
02:32 57.9 °F /  14.4 °C 56.8 °F /  13.8 °C 30.1 in /  1020.5 hPa Calm   2 mph /  3.2 km/h 96 % 0 in /  0.0 mm
02:37 57.7 °F /  14.3 °C 56.7 °F /  13.7 °C 30.1 in /  1020.5 hPa Calm   1 mph /  1.6 km/h 96 % 0 in /  0.0 mm
02:42 57.9 °F /  14.4 °C 56.8 °F /  13.8 °C 30.1 in /  1020.5 hPa Calm   1 mph /  1.6 km/h 96 % 0 in /  0.0 mm
02:52 57.9 °F /  14.4 °C 56.8 °F /  13.8 °C 30.1 in /  1020.5 hPa Calm   1 mph /  1.6 km/h 96 % 0 in /  0.0 mm
03:02 57.6 °F /  14.2 °C 56.5 °F /  13.6 °C 30.1 in /  1020.5 hPa Calm     96 % 0 in /  0.0 mm
03:12 57.6 °F /  14.2 °C 56.5 °F /  13.6 °C 30.1 in /  1020.5 hPa Calm     96 % 0 in /  0.0 mm
03:17 57.6 °F /  14.2 °C 56.5 °F /  13.6 °C 30.1 in /  1020.5 hPa Calm     96 % 0 in /  0.0 mm
03:22 57.4 °F /  14.1 °C 56.3 °F /  13.5 °C 30.1 in /  1020.5 hPa Calm     96 % 0 in /  0.0 mm
03:27 57.4 °F /  14.1 °C 56.3 °F /  13.5 °C 30.1 in /  1020.5 hPa Calm     96 % 0 in /  0.0 mm
03:32 57.4 °F /  14.1 °C 56.3 °F /  13.5 °C 30.1 in /  1020.5 hPa Calm     96 % 0 in /  0.0 mm
03:42 57.4 °F /  14.1 °C 56.3 °F /  13.5 °C 30.1 in /  1020.5 hPa Calm     96 % 0 in /  0.0 mm
03:47 57.2 °F /  14.0 °C 56.1 °F /  13.4 °C 30.1 in /  1020.5 hPa Calm     96 % 0 in /  0.0 mm
03:52 57 °F /  13.9 °C 55.9 °F /  13.3 °C 30.1 in /  1020.5 hPa Calm     96 % 0 in /  0.0 mm
03:57 56.8 °F /  13.8 °C 55.8 °F /  13.2 °C 30.1 in /  1020.5 hPa Calm     96 % 0 in /  0.0 mm
04:02 56.7 °F /  13.7 °C 55.6 °F /  13.1 °C 30.1 in /  1020.5 hPa Calm     96 % 0 in /  0.0 mm
04:12 56.8 °F /  13.8 °C 55.8 °F /  13.2 °C 30.1 in /  1020.5 hPa SW 1 mph /  1.6 km/h   96 % 0 in /  0.0 mm
04:22 56.8 °F /  13.8 °C 55.8 °F /  13.2 °C 30.1 in /  1020.5 hPa Calm   2 mph /  3.2 km/h 96 % 0 in /  0.0 mm
04:32 56.5 °F /  13.6 °C 55.4 °F /  13.0 °C 30.1 in /  1020.5 hPa Calm   2 mph /  3.2 km/h 96 % 0 in /  0.0 mm
04:37 56.5 °F /  13.6 °C 55.4 °F /  13.0 °C 30.1 in /  1020.5 hPa Calm   3 mph /  4.8 km/h 96 % 0 in /  0.0 mm
04:42 56.5 °F /  13.6 °C 55.4 °F /  13.0 °C 30.1 in /  1020.2 hPa SW 1 mph /  1.6 km/h 3 mph /  4.8 km/h 96 % 0 in /  0.0 mm
04:47 56.7 °F /  13.7 °C 55.8 °F /  13.2 °C 30.1 in /  1020.5 hPa WSW 1 mph /  1.6 km/h 3 mph /  4.8 km/h 97 % 0 in /  0.0 mm
04:52 56.8 °F /  13.8 °C 55.9 °F /  13.3 °C 30.1 in /  1020.5 hPa SW 1 mph /  1.6 km/h 3 mph /  4.8 km/h 97 % 0 in /  0.0 mm
04:57 56.8 °F /  13.8 °C 55.9 °F /  13.3 °C 30.1 in /  1020.5 hPa Calm   3 mph /  4.8 km/h 97 % 0 in /  0.0 mm
05:02 56.5 °F /  13.6 °C 55.4 °F /  13.0 °C 30.1 in /  1020.5 hPa Calm   3 mph /  4.8 km/h 96 % 0 in /  0.0 mm
05:07 56.1 °F /  13.4 °C 55 °F /  12.8 °C 30.1 in /  1020.5 hPa Calm   3 mph /  4.8 km/h 96 % 0.01 in /  0.3 mm
05:12 56.1 °F /  13.4 °C 55 °F /  12.8 °C 30.1 in /  1020.5 hPa Calm   3 mph /  4.8 km/h 96 % 0.01 in /  0.3 mm
05:22 55.9 °F /  13.3 °C 54.9 °F /  12.7 °C 30.1 in /  1020.5 hPa Calm     96 % 0.01 in /  0.3 mm
05:27 55.8 °F /  13.2 °C 54.7 °F /  12.6 °C 30.1 in /  1020.5 hPa Calm   1 mph /  1.6 km/h 96 % 0.01 in /  0.3 mm
05:32 55.8 °F /  13.2 °C 54.9 °F /  12.7 °C 30.1 in /  1020.5 hPa Calm   1 mph /  1.6 km/h 97 % 0.01 in /  0.3 mm
05:42 55.9 °F /  13.3 °C 55 °F /  12.8 °C 30.1 in /  1020.5 hPa Calm     97 % 0.01 in /  0.3 mm
05:52 56.1 °F /  13.4 °C 55.2 °F /  12.9 °C 30.1 in /  1020.5 hPa Calm     97 % 0.01 in /  0.3 mm
06:02 56.5 °F /  13.6 °C 55.6 °F /  13.1 °C 30.1 in /  1020.5 hPa Calm     97 % 0.01 in /  0.3 mm
06:12 56.3 °F /  13.5 °C 55.4 °F /  13.0 °C 30.1 in /  1020.5 hPa Calm     97 % 0 in /  0.0 mm
06:17 56.1 °F /  13.4 °C 55.2 °F /  12.9 °C 30.2 in /  1020.9 hPa Calm     97 % 0 in /  0.0 mm
06:22 56.1 °F /  13.4 °C 55.2 °F /  12.9 °C 30.2 in /  1020.9 hPa Calm     97 % 0 in /  0.0 mm
06:32 56.1 °F /  13.4 °C 55.2 °F /  12.9 °C 30.2 in /  1020.9 hPa Calm     97 % 0 in /  0.0 mm
06:42 56.1 °F /  13.4 °C 55.2 °F /  12.9 °C 30.2 in /  1020.9 hPa Calm   1 mph /  1.6 km/h 97 % 0 in /  0.0 mm
06:52 56.3 °F /  13.5 °C 55.4 °F /  13.0 °C 30.2 in /  1020.9 hPa Calm     97 % 0 in /  0.0 mm
07:02 56.5 °F /  13.6 °C 55.6 °F /  13.1 °C 30.2 in /  1020.9 hPa Calm     97 % 0 in /  0.0 mm
07:07 56.5 °F /  13.6 °C 55.6 °F /  13.1 °C 30.2 in /  1020.9 hPa Calm   2 mph /  3.2 km/h 97 % 0 in /  0.0 mm
07:12 56.7 °F /  13.7 °C 55.8 °F /  13.2 °C 30.2 in /  1020.9 hPa Calm   2 mph /  3.2 km/h 97 % 0 in /  0.0 mm
07:17 56.8 °F /  13.8 °C 55.9 °F /  13.3 °C 30.2 in /  1020.9 hPa Calm   2 mph /  3.2 km/h 97 % 0 in /  0.0 mm
07:22 56.8 °F /  13.8 °C 55.9 °F /  13.3 °C 30.2 in /  1020.9 hPa Calm   2 mph /  3.2 km/h 97 % 0 in /  0.0 mm
07:32 56.8 °F /  13.8 °C 55.9 °F /  13.3 °C 30.2 in /  1020.9 hPa Calm     97 % 0 in /  0.0 mm
07:37 56.8 °F /  13.8 °C 55.9 °F /  13.3 °C 30.2 in /  1021.2 hPa Calm     97 % 0 in /  0.0 mm
07:42 56.8 °F /  13.8 °C 55.9 °F /  13.3 °C 30.2 in /  1021.2 hPa Calm     97 % 0 in /  0.0 mm
07:47 56.8 °F /  13.8 °C 55.9 °F /  13.3 °C 30.2 in /  1021.2 hPa Calm     97 % 0 in /  0.0 mm
07:52 56.8 °F /  13.8 °C 55.9 °F /  13.3 °C 30.2 in /  1021.2 hPa Calm     97 % 0 in /  0.0 mm
07:57 56.8 °F /  13.8 °C 55.9 °F /  13.3 °C 30.2 in /  1021.2 hPa Calm     97 % 0 in /  0.0 mm
08:02 56.7 °F /  13.7 °C 55.8 °F /  13.2 °C 30.2 in /  1021.6 hPa Calm     97 % 0 in /  0.0 mm
08:07 56.5 °F /  13.6 °C 55.6 °F /  13.1 °C 30.2 in /  1021.6 hPa Calm     97 % 0 in /  0.0 mm
08:17 56.1 °F /  13.4 °C 55.2 °F /  12.9 °C 30.2 in /  1021.6 hPa Calm     97 % 0 in /  0.0 mm
08:22 56.3 °F /  13.5 °C 55.4 °F /  13.0 °C 30.2 in /  1021.6 hPa Calm     97 % 0 in /  0.0 mm
08:37 56.7 °F /  13.7 °C 55.8 °F /  13.2 °C 30.2 in /  1021.6 hPa Calm     97 % 0 in /  0.0 mm
08:42 56.7 °F /  13.7 °C 55.8 °F /  13.2 °C 30.2 in /  1021.6 hPa Calm     97 % 0 in /  0.0 mm
08:47 56.8 °F /  13.8 °C 55.9 °F /  13.3 °C 30.2 in /  1021.6 hPa Calm     97 % 0 in /  0.0 mm
08:57 57 °F /  13.9 °C 56.1 °F /  13.4 °C 30.2 in /  1021.6 hPa Calm     97 % 0 in /  0.0 mm
09:02 57 °F /  13.9 °C 56.1 °F /  13.4 °C 30.2 in /  1021.6 hPa Calm     97 % 0 in /  0.0 mm
09:07 57.2 °F /  14.0 °C 56.3 °F /  13.5 °C 30.2 in /  1021.6 hPa Calm     97 % 0 in /  0.0 mm
09:12 57.4 °F /  14.1 °C 56.5 °F /  13.6 °C 30.2 in /  1021.6 hPa Calm     97 % 0 in /  0.0 mm
09:17 57.6 °F /  14.2 °C 56.7 °F /  13.7 °C 30.2 in /  1021.6 hPa Calm     97 % 0 in /  0.0 mm
09:22 57.6 °F /  14.2 °C 56.7 °F /  13.7 °C 30.2 in /  1021.6 hPa Calm     97 % 0 in /  0.0 mm
09:32 57.9 °F /  14.4 °C 57 °F /  13.9 °C 30.2 in /  1021.6 hPa Calm     97 % 0 in /  0.0 mm
09:42 57.9 °F /  14.4 °C 57 °F /  13.9 °C 30.2 in /  1021.9 hPa Calm     97 % 0 in /  0.0 mm
09:52 58.1 °F /  14.5 °C 57.2 °F /  14.0 °C 30.2 in /  1021.9 hPa Calm     97 % 0 in /  0.0 mm
10:02 58.3 °F /  14.6 °C 57.4 °F /  14.1 °C 30.2 in /  1021.9 hPa Calm     97 % 0 in /  0.0 mm
10:12 58.5 °F /  14.7 °C 57.6 °F /  14.2 °C 30.2 in /  1021.9 hPa SSW 1 mph /  1.6 km/h 4 mph /  6.4 km/h 97 % 0 in /  0.0 mm
10:17 58.6 °F /  14.8 °C 57.7 °F /  14.3 °C 30.2 in /  1021.9 hPa South 1 mph /  1.6 km/h 4 mph /  6.4 km/h 97 % 0 in /  0.0 mm
10:22 58.6 °F /  14.8 °C 57.7 °F /  14.3 °C 30.2 in /  1021.9 hPa SW 2 mph /  3.2 km/h 4 mph /  6.4 km/h 97 % 0 in /  0.0 mm
10:27 58.6 °F /  14.8 °C 57.7 °F /  14.3 °C 30.2 in /  1021.9 hPa SW 1 mph /  1.6 km/h 4 mph /  6.4 km/h 97 % 0 in /  0.0 mm
10:37 59 °F /  15.0 °C 58.1 °F /  14.5 °C 30.2 in /  1021.9 hPa SW 2 mph /  3.2 km/h 5 mph /  8.0 km/h 97 % 0 in /  0.0 mm
10:42 59 °F /  15.0 °C 58.1 °F /  14.5 °C 30.2 in /  1021.9 hPa SW 2 mph /  3.2 km/h 5 mph /  8.0 km/h 97 % 0 in /  0.0 mm
10:47 59.2 °F /  15.1 °C 58.3 °F /  14.6 °C 30.2 in /  1021.9 hPa SSW 1 mph /  1.6 km/h 5 mph /  8.0 km/h 97 % 0 in /  0.0 mm
10:52 59.2 °F /  15.1 °C 58.3 °F /  14.6 °C 30.2 in /  1021.9 hPa Calm   4 mph /  6.4 km/h 97 % 0 in /  0.0 mm
10:57 59.2 °F /  15.1 °C 58.3 °F /  14.6 °C 30.2 in /  1021.9 hPa SSW 1 mph /  1.6 km/h 4 mph /  6.4 km/h 97 % 0 in /  0.0 mm
11:02 59.4 °F /  15.2 °C 58.5 °F /  14.7 °C 30.2 in /  1021.9 hPa SW 1 mph /  1.6 km/h 4 mph /  6.4 km/h 97 % 0 in /  0.0 mm
11:12 59.5 °F /  15.3 °C 58.6 °F /  14.8 °C 30.2 in /  1021.9 hPa SSW 1 mph /  1.6 km/h 5 mph /  8.0 km/h 97 % 0 in /  0.0 mm
11:17 59.5 °F /  15.3 °C 58.6 °F /  14.8 °C 30.2 in /  1021.9 hPa SW 3 mph /  4.8 km/h 5 mph /  8.0 km/h 97 % 0 in /  0.0 mm
11:22 59.7 °F /  15.4 °C 58.8 °F /  14.9 °C 30.2 in /  1021.9 hPa WSW 2 mph /  3.2 km/h 6 mph /  9.7 km/h 97 % 0 in /  0.0 mm
11:27 59.9 °F /  15.5 °C 59 °F /  15.0 °C 30.2 in /  1021.9 hPa SSW 3 mph /  4.8 km/h 6 mph /  9.7 km/h 97 % 0 in /  0.0 mm
11:32 59.9 °F /  15.5 °C 59 °F /  15.0 °C 30.2 in /  1021.9 hPa SW 6 mph /  9.7 km/h 7 mph /  11.3 km/h 97 % 0 in /  0.0 mm
11:37 60.1 °F /  15.6 °C 59.2 °F /  15.1 °C 30.2 in /  1021.9 hPa SSW 4 mph /  6.4 km/h 7 mph /  11.3 km/h 97 % 0 in /  0.0 mm
11:42 60.3 °F /  15.7 °C 59.4 °F /  15.2 °C 30.2 in /  1021.9 hPa SSW 1 mph /  1.6 km/h 7 mph /  11.3 km/h 97 % 0 in /  0.0 mm
11:47 60.3 °F /  15.7 °C 59.2 °F /  15.1 °C 30.2 in /  1021.9 hPa SSW 2 mph /  3.2 km/h 7 mph /  11.3 km/h 96 % 0 in /  0.0 mm
11:52 60.4 °F /  15.8 °C 59.4 °F /  15.2 °C 30.2 in /  1021.9 hPa SSW 3 mph /  4.8 km/h 7 mph /  11.3 km/h 96 % 0 in /  0.0 mm
12:02 60.6 °F /  15.9 °C 59.5 °F /  15.3 °C 30.2 in /  1021.9 hPa West 3 mph /  4.8 km/h 6 mph /  9.7 km/h 96 % 0 in /  0.0 mm
12:07 60.8 °F /  16.0 °C 59.7 °F /  15.4 °C 30.2 in /  1021.9 hPa SSW 3 mph /  4.8 km/h 6 mph /  9.7 km/h 96 % 0 in /  0.0 mm
12:12 61.2 °F /  16.2 °C 60.1 °F /  15.6 °C 30.2 in /  1021.9 hPa SSE 1 mph /  1.6 km/h 6 mph /  9.7 km/h 96 % 0 in /  0.0 mm
12:17 62.1 °F /  16.7 °C 61 °F /  16.1 °C 30.2 in /  1021.9 hPa SW 3 mph /  4.8 km/h 6 mph /  9.7 km/h 96 % 0 in /  0.0 mm
12:22 62.4 °F /  16.9 °C 60.6 °F /  15.9 °C 30.2 in /  1021.9 hPa SSW 4 mph /  6.4 km/h 6 mph /  9.7 km/h 94 % 0 in /  0.0 mm
12:32 63 °F /  17.2 °C 61 °F /  16.1 °C 30.2 in /  1021.9 hPa SW 1 mph /  1.6 km/h 6 mph /  9.7 km/h 93 % 0 in /  0.0 mm
12:37 63.9 °F /  17.7 °C 61.2 °F /  16.2 °C 30.2 in /  1021.9 hPa SW 6 mph /  9.7 km/h 8 mph /  12.9 km/h 91 % 0 in /  0.0 mm
12:42 63.9 °F /  17.7 °C 61.2 °F /  16.2 °C 30.2 in /  1021.9 hPa West 3 mph /  4.8 km/h 8 mph /  12.9 km/h 91 % 0 in /  0.0 mm
12:52 64.8 °F /  18.2 °C 61.2 °F /  16.2 °C 30.2 in /  1021.9 hPa SW 6 mph /  9.7 km/h 8 mph /  12.9 km/h 88 % 0 in /  0.0 mm
13:02 64.9 °F /  18.3 °C 60.6 °F /  15.9 °C 30.2 in /  1021.9 hPa WSW 2 mph /  3.2 km/h 8 mph /  12.9 km/h 86 % 0 in /  0.0 mm
13:12 65.1 °F /  18.4 °C 60.8 °F /  16.0 °C 30.2 in /  1021.9 hPa SW 4 mph /  6.4 km/h 8 mph /  12.9 km/h 86 % 0 in /  0.0 mm
13:17 65.7 °F /  18.7 °C 60.6 °F /  15.9 °C 30.2 in /  1021.9 hPa SW 1 mph /  1.6 km/h 8 mph /  12.9 km/h 84 % 0 in /  0.0 mm
13:22 65.7 °F /  18.7 °C 60.4 °F /  15.8 °C 30.2 in /  1021.9 hPa SSW 3 mph /  4.8 km/h 11 mph /  17.7 km/h 83 % 0 in /  0.0 mm
13:32 65.1 °F /  18.4 °C 60.4 °F /  15.8 °C 30.2 in /  1021.9 hPa WSW 5 mph /  8.0 km/h 11 mph /  17.7 km/h 85 % 0 in /  0.0 mm
13:37 65.5 °F /  18.6 °C 61.2 °F /  16.2 °C 30.2 in /  1021.9 hPa SW 10 mph /  16.1 km/h 11 mph /  17.7 km/h 86 % 0 in /  0.0 mm
13:42 65.3 °F /  18.5 °C 60.6 °F /  15.9 °C 30.2 in /  1021.9 hPa WSW 5 mph /  8.0 km/h 11 mph /  17.7 km/h 85 % 0 in /  0.0 mm
13:47 65.8 °F /  18.8 °C 61.2 °F /  16.2 °C 30.2 in /  1021.9 hPa SSW 5 mph /  8.0 km/h 11 mph /  17.7 km/h 85 % 0 in /  0.0 mm
13:52 65.8 °F /  18.8 °C 59.9 °F /  15.5 °C 30.2 in /  1021.9 hPa West 4 mph /  6.4 km/h 11 mph /  17.7 km/h 81 % 0 in /  0.0 mm
13:57 65.8 °F /  18.8 °C 59.9 °F /  15.5 °C 30.2 in /  1021.9 hPa SW 6 mph /  9.7 km/h 11 mph /  17.7 km/h 81 % 0 in /  0.0 mm
14:02 65.1 °F /  18.4 °C 59.5 °F /  15.3 °C 30.2 in /  1021.9 hPa West 4 mph /  6.4 km/h 11 mph /  17.7 km/h 82 % 0 in /  0.0 mm
14:12 65.1 °F /  18.4 °C 59.5 °F /  15.3 °C 30.2 in /  1021.9 hPa WSW 5 mph /  8.0 km/h 13 mph /  20.9 km/h 82 % 0 in /  0.0 mm
14:17 65.5 °F /  18.6 °C 59.9 °F /  15.5 °C 30.2 in /  1021.9 hPa South 7 mph /  11.3 km/h 13 mph /  20.9 km/h 82 % 0 in /  0.0 mm
14:22 65.7 °F /  18.7 °C 59 °F /  15.0 °C 30.2 in /  1021.9 hPa SW 7 mph /  11.3 km/h 10 mph /  16.1 km/h 79 % 0 in /  0.0 mm
14:27 65.7 °F /  18.7 °C 59.4 °F /  15.2 °C 30.2 in /  1021.9 hPa SW 9 mph /  14.5 km/h 10 mph /  16.1 km/h 80 % 0 in /  0.0 mm
14:42 66 °F /  18.9 °C 60.1 °F /  15.6 °C 30.2 in /  1021.9 hPa WSW 3 mph /  4.8 km/h 14 mph /  22.5 km/h 81 % 0 in /  0.0 mm
14:52 65.1 °F /  18.4 °C 59.2 °F /  15.1 °C 30.2 in /  1021.9 hPa West 5 mph /  8.0 km/h 14 mph /  22.5 km/h 81 % 0 in /  0.0 mm
15:02 64.9 °F /  18.3 °C 59.4 °F /  15.2 °C 30.2 in /  1021.9 hPa WNW 3 mph /  4.8 km/h 11 mph /  17.7 km/h 82 % 0 in /  0.0 mm
15:07 65.1 °F /  18.4 °C 59.2 °F /  15.1 °C 30.2 in /  1021.9 hPa West 2 mph /  3.2 km/h 11 mph /  17.7 km/h 81 % 0 in /  0.0 mm
15:12 65.5 °F /  18.6 °C 59.5 °F /  15.3 °C 30.2 in /  1021.9 hPa WSW 2 mph /  3.2 km/h 10 mph /  16.1 km/h 81 % 0 in /  0.0 mm
15:17 65.3 °F /  18.5 °C 59 °F /  15.0 °C 30.2 in /  1021.9 hPa WNW 2 mph /  3.2 km/h 10 mph /  16.1 km/h 80 % 0 in /  0.0 mm
15:22 65.1 °F /  18.4 °C 58.8 °F /  14.9 °C 30.2 in /  1021.9 hPa WNW 2 mph /  3.2 km/h 6 mph /  9.7 km/h 80 % 0 in /  0.0 mm
15:32 65.5 °F /  18.6 °C 59.2 °F /  15.1 °C 30.2 in /  1021.6 hPa WSW 2 mph /  3.2 km/h 6 mph /  9.7 km/h 80 % 0 in /  0.0 mm
15:37 65.8 °F /  18.8 °C 59.2 °F /  15.1 °C 30.2 in /  1021.6 hPa WNW 3 mph /  4.8 km/h 6 mph /  9.7 km/h 79 % 0 in /  0.0 mm
15:42 65.8 °F /  18.8 °C 59.2 °F /  15.1 °C 30.2 in /  1021.6 hPa WNW 3 mph /  4.8 km/h 6 mph /  9.7 km/h 79 % 0 in /  0.0 mm
15:47 66 °F /  18.9 °C 58.6 °F /  14.8 °C 30.2 in /  1021.6 hPa WNW 3 mph /  4.8 km/h 6 mph /  9.7 km/h 77 % 0 in /  0.0 mm
15:52 66.4 °F /  19.1 °C 59.4 °F /  15.2 °C 30.2 in /  1021.6 hPa WNW 2 mph /  3.2 km/h 6 mph /  9.7 km/h 78 % 0 in /  0.0 mm
15:57 66.6 °F /  19.2 °C 58.8 °F /  14.9 °C 30.2 in /  1021.6 hPa Calm   5 mph /  8.0 km/h 76 % 0 in /  0.0 mm
16:02 66.7 °F /  19.3 °C 59.7 °F /  15.4 °C 30.2 in /  1021.6 hPa NW 5 mph /  8.0 km/h 5 mph /  8.0 km/h 78 % 0 in /  0.0 mm
16:12 66.6 °F /  19.2 °C 59.2 °F /  15.1 °C 30.2 in /  1021.6 hPa Calm   6 mph /  9.7 km/h 77 % 0 in /  0.0 mm
16:22 66.6 °F /  19.2 °C 58.1 °F /  14.5 °C 30.2 in /  1021.6 hPa WNW 2 mph /  3.2 km/h 5 mph /  8.0 km/h 74 % 0 in /  0.0 mm
16:32 66.7 °F /  19.3 °C 58.6 °F /  14.8 °C 30.2 in /  1021.6 hPa WNW 3 mph /  4.8 km/h 5 mph /  8.0 km/h 75 % 0 in /  0.0 mm
16:42 66 °F /  18.9 °C 58.6 °F /  14.8 °C 30.2 in /  1021.6 hPa WNW 3 mph /  4.8 km/h 5 mph /  8.0 km/h 77 % 0 in /  0.0 mm
16:47 65.8 °F /  18.8 °C 58.8 °F /  14.9 °C 30.2 in /  1021.6 hPa West 2 mph /  3.2 km/h 5 mph /  8.0 km/h 78 % 0 in /  0.0 mm
16:52 65.8 °F /  18.8 °C 58.8 °F /  14.9 °C 30.2 in /  1021.6 hPa NW 2 mph /  3.2 km/h 5 mph /  8.0 km/h 78 % 0 in /  0.0 mm
16:57 65.7 °F /  18.7 °C 58.6 °F /  14.8 °C 30.2 in /  1021.6 hPa WNW 4 mph /  6.4 km/h 5 mph /  8.0 km/h 78 % 0 in /  0.0 mm
17:02 65.5 °F /  18.6 °C 58.8 °F /  14.9 °C 30.2 in /  1021.6 hPa West 4 mph /  6.4 km/h 5 mph /  8.0 km/h 79 % 0 in /  0.0 mm
17:07 65.1 °F /  18.4 °C 58.1 °F /  14.5 °C 30.2 in /  1021.9 hPa West 5 mph /  8.0 km/h 5 mph /  8.0 km/h 78 % 0 in /  0.0 mm
17:12 64.9 °F /  18.3 °C 57.9 °F /  14.4 °C 30.2 in /  1021.6 hPa WNW 3 mph /  4.8 km/h 5 mph /  8.0 km/h 78 % 0 in /  0.0 mm
17:17 64.9 °F /  18.3 °C 57.9 °F /  14.4 °C 30.2 in /  1021.6 hPa Calm   6 mph /  9.7 km/h 78 % 0 in /  0.0 mm
17:22 64.9 °F /  18.3 °C 57.9 °F /  14.4 °C 30.2 in /  1021.6 hPa West 1 mph /  1.6 km/h 6 mph /  9.7 km/h 78 % 0 in /  0.0 mm
17:27 64.9 °F /  18.3 °C 57.9 °F /  14.4 °C 30.2 in /  1021.9 hPa West 2 mph /  3.2 km/h 5 mph /  8.0 km/h 78 % 0 in /  0.0 mm
17:32 64.8 °F /  18.2 °C 58.1 °F /  14.5 °C 30.2 in /  1021.9 hPa WNW 2 mph /  3.2 km/h 5 mph /  8.0 km/h 79 % 0 in /  0.0 mm
17:37 64.8 °F /  18.2 °C 58.1 °F /  14.5 °C 30.2 in /  1021.9 hPa WNW 2 mph /  3.2 km/h 6 mph /  9.7 km/h 79 % 0 in /  0.0 mm
17:42 64.6 °F /  18.1 °C 58.3 °F /  14.6 °C 30.2 in /  1021.9 hPa WNW 3 mph /  4.8 km/h 6 mph /  9.7 km/h 80 % 0 in /  0.0 mm
17:52 64.6 °F /  18.1 °C 58.3 °F /  14.6 °C 30.2 in /  1021.9 hPa Calm   5 mph /  8.0 km/h 80 % 0 in /  0.0 mm
17:57 64.6 °F /  18.1 °C 58.6 °F /  14.8 °C 30.2 in /  1021.9 hPa WNW 2 mph /  3.2 km/h 4 mph /  6.4 km/h 81 % 0 in /  0.0 mm
18:02 64.4 °F /  18.0 °C 58.5 °F /  14.7 °C 30.2 in /  1021.9 hPa WNW 1 mph /  1.6 km/h 4 mph /  6.4 km/h 81 % 0 in /  0.0 mm
18:12 64.2 °F /  17.9 °C 58.3 °F /  14.6 °C 30.2 in /  1021.9 hPa West 1 mph /  1.6 km/h 3 mph /  4.8 km/h 81 % 0 in /  0.0 mm
18:17 64 °F /  17.8 °C 58.5 °F /  14.7 °C 30.2 in /  1021.9 hPa WNW 2 mph /  3.2 km/h 3 mph /  4.8 km/h 82 % 0 in /  0.0 mm
18:32 63.9 °F /  17.7 °C 58.3 °F /  14.6 °C 30.2 in /  1022.2 hPa Calm   4 mph /  6.4 km/h 82 % 0 in /  0.0 mm
18:37 63.9 °F /  17.7 °C 58.3 °F /  14.6 °C 30.2 in /  1022.2 hPa Calm   4 mph /  6.4 km/h 82 % 0 in /  0.0 mm
18:42 63.7 °F /  17.6 °C 58.1 °F /  14.5 °C 30.2 in /  1022.2 hPa NW 1 mph /  1.6 km/h 3 mph /  4.8 km/h 82 % 0 in /  0.0 mm
18:52 63.5 °F /  17.5 °C 57.9 °F /  14.4 °C 30.2 in /  1022.2 hPa Calm   3 mph /  4.8 km/h 82 % 0 in /  0.0 mm
18:57 63.7 °F /  17.6 °C 58.1 °F /  14.5 °C 30.2 in /  1022.2 hPa Calm   3 mph /  4.8 km/h 82 % 0 in /  0.0 mm
19:02 63.9 °F /  17.7 °C 58.6 °F /  14.8 °C 30.2 in /  1022.2 hPa Calm   3 mph /  4.8 km/h 83 % 0 in /  0.0 mm
19:12 63.7 °F /  17.6 °C 58.5 °F /  14.7 °C 30.2 in /  1022.2 hPa Calm   2 mph /  3.2 km/h 83 % 0 in /  0.0 mm
19:17 63.5 °F /  17.5 °C 58.3 °F /  14.6 °C 30.2 in /  1022.2 hPa Calm     83 % 0 in /  0.0 mm
19:22 63.3 °F /  17.4 °C 58.1 °F /  14.5 °C 30.2 in /  1022.2 hPa Calm     83 % 0 in /  0.0 mm
19:32 63 °F /  17.2 °C 58.5 °F /  14.7 °C 30.2 in /  1022.2 hPa Calm   1 mph /  1.6 km/h 85 % 0 in /  0.0 mm
19:37 62.8 °F /  17.1 °C 58.3 °F /  14.6 °C 30.2 in /  1022.2 hPa Calm   1 mph /  1.6 km/h 85 % 0 in /  0.0 mm
19:42 62.6 °F /  17.0 °C 58.1 °F /  14.5 °C 30.2 in /  1022.2 hPa Calm   1 mph /  1.6 km/h 85 % 0 in /  0.0 mm
19:52 62.4 °F /  16.9 °C 57.6 °F /  14.2 °C 30.2 in /  1022.2 hPa Calm   1 mph /  1.6 km/h 84 % 0 in /  0.0 mm
19:57 62.4 °F /  16.9 °C 57.6 °F /  14.2 °C 30.2 in /  1022.6 hPa Calm   1 mph /  1.6 km/h 84 % 0 in /  0.0 mm
20:02 62.2 °F /  16.8 °C 57.4 °F /  14.1 °C 30.2 in /  1022.6 hPa Calm   1 mph /  1.6 km/h 84 % 0 in /  0.0 mm
20:12 61.9 °F /  16.6 °C 57.6 °F /  14.2 °C 30.2 in /  1022.6 hPa Calm     86 % 0 in /  0.0 mm
20:17 61.5 °F /  16.4 °C 57.4 °F /  14.1 °C 30.2 in /  1022.6 hPa Calm     86 % 0 in /  0.0 mm
20:22 61.3 °F /  16.3 °C 57.4 °F /  14.1 °C 30.2 in /  1022.6 hPa Calm     87 % 0 in /  0.0 mm
20:32 61.3 °F /  16.3 °C 57.7 °F /  14.3 °C 30.2 in /  1022.6 hPa Calm     88 % 0 in /  0.0 mm
20:37 61.2 °F /  16.2 °C 57.6 °F /  14.2 °C 30.2 in /  1022.9 hPa Calm     88 % 0 in /  0.0 mm
20:42 60.8 °F /  16.0 °C 57.6 °F /  14.2 °C 30.2 in /  1022.9 hPa Calm     89 % 0 in /  0.0 mm
20:57 60.8 °F /  16.0 °C 57.6 °F /  14.2 °C 30.2 in /  1022.9 hPa Calm     89 % 0 in /  0.0 mm
21:02 60.4 °F /  15.8 °C 57.6 °F /  14.2 °C 30.2 in /  1022.9 hPa Calm     90 % 0 in /  0.0 mm
21:12 60.4 °F /  15.8 °C 57.7 °F /  14.3 °C 30.2 in /  1022.9 hPa Calm     91 % 0 in /  0.0 mm
21:17 60.6 °F /  15.9 °C 57.7 °F /  14.3 °C 30.2 in /  1022.9 hPa Calm     90 % 0 in /  0.0 mm
21:27 60.6 °F /  15.9 °C 57.7 °F /  14.3 °C 30.2 in /  1022.9 hPa Calm     90 % 0 in /  0.0 mm
21:32 60.4 °F /  15.8 °C 57.6 °F /  14.2 °C 30.2 in /  1022.9 hPa Calm     90 % 0 in /  0.0 mm
21:37 60.3 °F /  15.7 °C 57.6 °F /  14.2 °C 30.2 in /  1022.9 hPa Calm     91 % 0 in /  0.0 mm
21:42 60.1 °F /  15.6 °C 57.4 °F /  14.1 °C 30.2 in /  1022.9 hPa Calm     91 % 0 in /  0.0 mm
21:47 60.1 °F /  15.6 °C 57.7 °F /  14.3 °C 30.2 in /  1022.9 hPa Calm     92 % 0 in /  0.0 mm
21:52 59.9 °F /  15.5 °C 57.6 °F /  14.2 °C 30.2 in /  1022.9 hPa Calm     92 % 0 in /  0.0 mm
21:57 59.7 °F /  15.4 °C 57.4 °F /  14.1 °C 30.2 in /  1022.9 hPa Calm     92 % 0 in /  0.0 mm
22:02 59.5 °F /  15.3 °C 57.2 °F /  14.0 °C 30.2 in /  1022.9 hPa Calm     92 % 0 in /  0.0 mm
22:12 59.2 °F /  15.1 °C 57.2 °F /  14.0 °C 30.2 in /  1022.9 hPa Calm     93 % 0 in /  0.0 mm
22:17 59 °F /  15.0 °C 57 °F /  13.9 °C 30.2 in /  1022.9 hPa Calm     93 % 0 in /  0.0 mm
22:22 59 °F /  15.0 °C 57 °F /  13.9 °C 30.2 in /  1022.9 hPa Calm     93 % 0 in /  0.0 mm
22:32 58.8 °F /  14.9 °C 57 °F /  13.9 °C 30.2 in /  1022.9 hPa Calm     94 % 0 in /  0.0 mm
22:42 58.8 °F /  14.9 °C 57 °F /  13.9 °C 30.2 in /  1022.9 hPa Calm     94 % 0 in /  0.0 mm
22:47 58.6 °F /  14.8 °C 56.8 °F /  13.8 °C 30.2 in /  1022.9 hPa Calm     94 % 0 in /  0.0 mm
22:52 58.5 °F /  14.7 °C 56.7 °F /  13.7 °C 30.2 in /  1022.9 hPa Calm     94 % 0 in /  0.0 mm
22:57 58.1 °F /  14.5 °C 56.3 °F /  13.5 °C 30.2 in /  1022.9 hPa Calm     94 % 0 in /  0.0 mm
23:02 57.9 °F /  14.4 °C 56.1 °F /  13.4 °C 30.2 in /  1023.2 hPa Calm     94 % 0 in /  0.0 mm
23:12 57.7 °F /  14.3 °C 56.3 °F /  13.5 °C 30.2 in /  1022.9 hPa Calm     95 % 0 in /  0.0 mm
23:17 57.4 °F /  14.1 °C 55.6 °F /  13.1 °C 30.2 in /  1022.9 hPa Calm     94 % 0 in /  0.0 mm
23:22 57.4 °F /  14.1 °C 55.9 °F /  13.3 °C 30.2 in /  1022.9 hPa Calm     95 % 0 in /  0.0 mm
23:27 57.2 °F /  14.0 °C 55.8 °F /  13.2 °C 30.2 in /  1022.9 hPa Calm     95 % 0 in /  0.0 mm
23:32 57 °F /  13.9 °C 55.6 °F /  13.1 °C 30.2 in /  1022.9 hPa Calm     95 % 0 in /  0.0 mm
23:42 56.8 °F /  13.8 °C 55.4 °F /  13.0 °C 30.2 in /  1022.9 hPa Calm     95 % 0 in /  0.0 mm
23:47 56.7 °F /  13.7 °C 55.2 °F /  12.9 °C 30.2 in /  1022.9 hPa Calm     95 % 0 in /  0.0 mm
23:52 56.5 °F /  13.6 °C 55 °F /  12.8 °C 30.2 in /  1022.9 hPa Calm     95 % 0 in /  0.0 mm
23:57 56.5 °F /  13.6 °C 55.4 °F /  13.0 °C 30.2 in /  1022.9 hPa Calm     96 % 0 in /  0.0 mm
Meteo18
Compliments of Weather Underground - 4 mb

Script developed by  Jim McMurry - jmcmurry@mwt.net Adapted for the template by  Wim van der Kuil - Leuven-Template.eu

You find our weather info also at:

European Weather Network

Weather Underground

Equipment we use:

Weather-station
Davis Vue

Weather-program
Meteohub

Weather-server
Raspberry PI 2 B+

Provider
1 and 1

Davis Vue

Meteohub

Raspberry PI 2 B+

1 and 1